createdAt,value
2023-03-18T00:01:04.010Z,32.36
2023-03-18T00:03:31.516Z,32.32
2023-03-18T00:06:08.463Z,32.31
2023-03-18T00:08:34.900Z,32.18
2023-03-18T00:11:01.285Z,32.23
2023-03-18T00:13:27.907Z,32.10
2023-03-18T00:15:54.256Z,32.25
2023-03-18T00:18:20.579Z,32.17
2023-03-18T00:20:46.896Z,32.03
2023-03-18T00:23:13.222Z,32.29
2023-03-18T00:25:39.543Z,32.14
2023-03-18T00:28:06.433Z,32.21
2023-03-18T00:30:33.540Z,32.26
2023-03-18T00:33:00.298Z,32.18
2023-03-18T00:35:30.827Z,32.06
2023-03-18T00:37:58.375Z,31.97
2023-03-18T00:40:30.825Z,32.01
2023-03-18T00:43:08.057Z,31.92
2023-03-18T00:45:37.027Z,32.04
2023-03-18T00:48:03.750Z,32.03
2023-03-18T00:50:30.293Z,32.02
2023-03-18T00:52:56.752Z,31.98
2023-03-18T00:55:23.080Z,32.02
2023-03-18T00:57:49.413Z,32.08
2023-03-18T01:00:17.010Z,31.96
2023-03-18T01:02:44.134Z,32.04
2023-03-18T01:05:13.398Z,31.97
2023-03-18T01:07:39.719Z,32.06
2023-03-18T01:10:06.455Z,32.09
2023-03-18T01:12:33.227Z,32.05
2023-03-18T01:14:59.783Z,32.14
2023-03-18T01:17:26.105Z,32.03
2023-03-18T01:19:52.423Z,31.99
2023-03-18T01:22:19.460Z,31.97
2023-03-18T01:24:47.095Z,32.04
2023-03-18T01:27:13.922Z,32.00
2023-03-18T01:29:40.579Z,31.97
2023-03-18T01:32:06.939Z,31.98
2023-03-18T01:34:34.179Z,31.97
2023-03-18T01:37:01.506Z,32.04
2023-03-18T01:39:27.843Z,32.07
2023-03-18T01:41:54.156Z,32.11
2023-03-18T01:44:21.707Z,31.92
2023-03-18T01:46:48.552Z,32.00
2023-03-18T01:49:18.983Z,31.91
2023-03-18T01:51:46.657Z,32.14
2023-03-18T01:54:12.981Z,31.96
2023-03-18T01:56:39.508Z,32.02
2023-03-18T01:59:06.070Z,32.12
2023-03-18T02:01:51.465Z,32.02
2023-03-18T02:04:17.873Z,31.89
2023-03-18T02:06:44.219Z,32.04
2023-03-18T02:09:10.558Z,32.02
2023-03-18T02:11:39.090Z,32.11
2023-03-18T02:14:05.567Z,32.13
2023-03-18T02:16:34.304Z,32.18
2023-03-18T02:19:09.851Z,32.06
2023-03-18T02:21:49.798Z,31.99
2023-03-18T02:24:22.092Z,32.14
2023-03-18T02:27:12.188Z,32.08
2023-03-18T02:29:38.601Z,32.16
2023-03-18T02:32:05.975Z,32.23
2023-03-18T02:34:32.454Z,32.08
2023-03-18T02:36:58.825Z,32.06
2023-03-18T02:39:25.136Z,32.25
2023-03-18T02:41:51.573Z,32.08
2023-03-18T02:44:18.460Z,32.06
2023-03-18T02:46:52.191Z,32.02
2023-03-18T02:49:18.836Z,32.10
2023-03-18T02:51:45.222Z,32.09
2023-03-18T02:54:12.776Z,31.99
2023-03-18T02:56:39.456Z,32.15
2023-03-18T02:59:06.014Z,32.14
2023-03-18T03:01:32.463Z,32.18
2023-03-18T03:03:58.837Z,32.10
2023-03-18T03:06:25.810Z,32.23
2023-03-18T03:08:52.232Z,32.34
2023-03-18T03:11:19.038Z,32.10
2023-03-18T03:13:45.821Z,32.27
2023-03-18T03:16:15.660Z,32.22
2023-03-18T03:18:42.334Z,32.33
2023-03-18T03:21:09.133Z,32.38
2023-03-18T03:23:35.622Z,32.21
2023-03-18T03:26:02.555Z,32.17
2023-03-18T03:28:28.880Z,32.10
2023-03-18T03:30:55.745Z,32.01
2023-03-18T03:33:22.862Z,32.15
2023-03-18T03:35:49.242Z,32.22
2023-03-18T03:38:16.071Z,32.08
2023-03-18T03:40:42.456Z,32.18
2023-03-18T03:43:10.796Z,32.14
2023-03-18T03:45:37.681Z,32.11
2023-03-18T03:48:04.124Z,32.24
2023-03-18T03:50:30.771Z,32.31
2023-03-18T03:52:57.415Z,32.10
2023-03-18T03:55:23.756Z,32.16
2023-03-18T03:57:50.193Z,32.18
2023-03-18T04:00:18.530Z,32.31
2023-03-18T04:02:45.024Z,32.23
2023-03-18T04:05:12.491Z,32.12
2023-03-18T04:07:38.953Z,32.27
2023-03-18T04:10:05.560Z,32.33
2023-03-18T04:12:31.873Z,32.43
2023-03-18T04:14:58.174Z,32.31
2023-03-18T04:17:24.597Z,32.33
2023-03-18T04:19:50.927Z,32.38
2023-03-18T04:22:18.200Z,32.26
2023-03-18T04:24:44.882Z,32.23
2023-03-18T04:27:11.595Z,32.45
2023-03-18T04:29:37.982Z,32.33
2023-03-18T04:32:04.370Z,32.31
2023-03-18T04:34:30.765Z,32.26
2023-03-18T04:36:58.062Z,32.49
2023-03-18T04:39:24.363Z,32.41
2023-03-18T04:41:50.767Z,32.23
2023-03-18T04:44:17.382Z,32.35
2023-03-18T04:46:43.737Z,32.46
2023-03-18T04:49:10.503Z,32.48
2023-03-18T04:51:37.840Z,32.44
2023-03-18T04:54:04.146Z,32.51
2023-03-18T04:56:31.308Z,32.47
2023-03-18T04:58:57.612Z,32.35
2023-03-18T05:01:24.350Z,32.38
2023-03-18T05:03:50.949Z,32.54
2023-03-18T05:06:21.762Z,32.33
2023-03-18T05:08:48.504Z,32.27
2023-03-18T05:11:15.227Z,32.40
2023-03-18T05:13:41.618Z,32.31
2023-03-18T05:16:08.806Z,32.45
2023-03-18T05:18:35.619Z,32.46
2023-03-18T05:21:02.627Z,32.46
2023-03-18T05:23:29.411Z,32.30
2023-03-18T05:25:55.768Z,32.41
2023-03-18T05:28:22.363Z,32.17
2023-03-18T05:30:48.674Z,32.40
2023-03-18T05:33:15.002Z,32.39
2023-03-18T05:35:41.513Z,32.27
2023-03-18T05:38:07.905Z,32.44
2023-03-18T05:40:34.296Z,32.29
2023-03-18T05:43:00.614Z,32.41
2023-03-18T05:45:27.473Z,32.50
2023-03-18T05:47:53.815Z,32.77
2023-03-18T05:50:30.250Z,32.58
2023-03-18T05:52:56.584Z,32.52
2023-03-18T05:55:23.417Z,32.52
2023-03-18T05:57:49.727Z,32.48
2023-03-18T06:00:18.568Z,32.49
2023-03-18T06:02:44.906Z,32.43
2023-03-18T06:05:12.146Z,32.27
2023-03-18T06:07:38.473Z,32.17
2023-03-18T06:10:05.122Z,32.23
2023-03-18T06:12:31.441Z,32.10
2023-03-18T06:14:58.103Z,32.07
2023-03-18T06:17:24.421Z,31.68
2023-03-18T06:19:51.090Z,31.72
2023-03-18T06:22:17.509Z,31.91
2023-03-18T06:24:43.832Z,31.79
2023-03-18T06:27:10.185Z,32.05
2023-03-18T06:29:36.873Z,32.34
2023-03-18T06:32:03.409Z,32.03
2023-03-18T06:34:29.725Z,32.24
2023-03-18T06:36:56.861Z,31.97
2023-03-18T06:39:23.206Z,31.86
2023-03-18T06:41:49.523Z,31.70
2023-03-18T06:44:15.841Z,31.64
2023-03-18T06:46:44.000Z,31.34
2023-03-18T06:49:11.168Z,31.43
2023-03-18T06:51:37.496Z,31.23
2023-03-18T06:54:03.881Z,31.16
2023-03-18T06:56:30.601Z,30.73
2023-03-18T06:58:58.128Z,30.61
2023-03-18T07:01:24.508Z,30.76
2023-03-18T07:03:51.513Z,30.89
2023-03-18T07:06:18.721Z,31.01
2023-03-18T07:08:45.784Z,30.95
2023-03-18T07:11:12.325Z,31.20
2023-03-18T07:13:38.971Z,31.11
2023-03-18T07:16:05.424Z,31.41
2023-03-18T07:18:32.073Z,31.30
2023-03-18T07:20:58.755Z,31.29
2023-03-18T07:23:25.093Z,31.34
2023-03-18T07:25:51.508Z,31.31
2023-03-18T07:28:17.855Z,31.16
2023-03-18T07:30:44.954Z,31.30
2023-03-18T07:33:11.297Z,31.25
2023-03-18T07:35:40.862Z,31.28
2023-03-18T07:38:10.304Z,31.51
2023-03-18T07:40:37.613Z,31.51
2023-03-18T07:43:04.656Z,31.38
2023-03-18T07:45:31.465Z,31.19
2023-03-18T07:47:58.275Z,30.84
2023-03-18T07:50:24.626Z,30.26
2023-03-18T07:52:52.004Z,30.22
2023-03-18T07:55:18.408Z,30.25
2023-03-18T07:57:44.954Z,30.33
2023-03-18T08:00:12.466Z,30.19
2023-03-18T08:02:38.935Z,30.36
2023-03-18T08:05:06.967Z,30.41
2023-03-18T08:07:34.692Z,30.43
2023-03-18T08:10:01.647Z,30.31
2023-03-18T08:12:35.534Z,30.17
2023-03-18T08:15:11.617Z,30.03
2023-03-18T08:17:38.190Z,30.16
2023-03-18T08:20:05.171Z,30.21
2023-03-18T08:22:31.502Z,30.50
2023-03-18T08:24:58.211Z,30.42
2023-03-18T08:27:24.732Z,30.39
2023-03-18T08:29:51.032Z,30.54
2023-03-18T08:32:17.354Z,30.78
2023-03-18T08:34:43.743Z,31.01
2023-03-18T08:37:10.181Z,31.14
2023-03-18T08:39:36.488Z,31.23
2023-03-18T08:42:04.171Z,31.12
2023-03-18T08:44:31.002Z,31.10
2023-03-18T08:46:57.767Z,31.19
2023-03-18T08:49:24.694Z,31.29
2023-03-18T08:51:51.692Z,31.44
2023-03-18T08:54:18.152Z,31.55
2023-03-18T08:56:44.464Z,31.54
2023-03-18T08:59:10.821Z,31.71
2023-03-18T09:01:37.429Z,31.76
2023-03-18T09:04:03.798Z,31.72
2023-03-18T09:06:30.453Z,31.75
2023-03-18T09:08:57.487Z,31.74
2023-03-18T09:11:23.825Z,31.68
2023-03-18T09:13:50.192Z,31.79
2023-03-18T09:16:17.316Z,31.61
2023-03-18T09:18:45.259Z,31.94
2023-03-18T09:21:12.247Z,31.92
2023-03-18T09:23:38.569Z,31.90
2023-03-18T09:26:05.375Z,31.83
2023-03-18T09:28:32.075Z,32.09
2023-03-18T09:30:58.408Z,31.89
2023-03-18T09:33:25.507Z,32.01
2023-03-18T09:35:51.889Z,31.95
2023-03-18T09:38:19.526Z,31.97
2023-03-18T09:40:59.434Z,32.05
2023-03-18T09:43:35.889Z,31.96
2023-03-18T09:46:05.461Z,32.55
2023-03-18T09:48:47.289Z,32.43
2023-03-18T09:51:28.263Z,32.44
2023-03-18T09:54:13.516Z,32.51
2023-03-18T09:56:40.089Z,32.65
2023-03-18T09:59:12.873Z,32.63
2023-03-18T10:01:39.321Z,32.59
2023-03-18T10:04:14.174Z,32.71
2023-03-18T10:06:42.945Z,32.53
2023-03-18T10:09:36.076Z,32.42
2023-03-18T10:12:25.581Z,32.77
2023-03-18T10:14:51.944Z,32.57
2023-03-18T10:17:41.674Z,32.50
2023-03-18T10:20:17.354Z,32.54
2023-03-18T10:23:02.004Z,32.64
2023-03-18T10:25:34.873Z,32.70
2023-03-18T10:28:18.116Z,32.79
2023-03-18T10:30:50.760Z,32.67
2023-03-18T10:33:23.301Z,32.76
2023-03-18T10:36:08.628Z,32.68
2023-03-18T10:38:36.322Z,32.79
2023-03-18T10:41:02.652Z,32.68
2023-03-18T10:43:31.790Z,32.66
2023-03-18T10:46:02.385Z,32.64
2023-03-18T10:48:38.764Z,32.73
2023-03-18T10:51:24.574Z,32.73
2023-03-18T10:53:58.699Z,32.77
2023-03-18T10:56:25.210Z,32.82
2023-03-18T10:58:52.707Z,32.65
2023-03-18T11:01:21.181Z,32.67
2023-03-18T11:03:50.547Z,32.99
2023-03-18T11:06:25.241Z,32.95
2023-03-18T11:08:52.168Z,32.76
2023-03-18T11:11:28.593Z,32.84
2023-03-18T11:13:56.052Z,33.23
2023-03-18T11:16:30.532Z,33.21
2023-03-18T11:18:57.314Z,33.04
2023-03-18T11:21:24.168Z,33.10
2023-03-18T11:24:10.190Z,33.02
2023-03-18T11:26:43.994Z,33.17
2023-03-18T11:29:11.056Z,33.04
2023-03-18T11:31:51.190Z,33.30
2023-03-18T11:34:19.704Z,32.85
2023-03-18T11:37:04.978Z,32.99
2023-03-18T11:39:31.880Z,32.93
2023-03-18T11:41:59.297Z,33.00
2023-03-18T11:44:27.924Z,32.93
2023-03-18T11:46:55.544Z,32.99
2023-03-18T11:49:22.796Z,32.75
2023-03-18T11:52:04.394Z,32.81
2023-03-18T11:54:47.754Z,32.67
2023-03-18T11:57:20.279Z,32.47
2023-03-18T11:59:56.360Z,32.64
2023-03-18T12:02:42.898Z,32.53
2023-03-18T12:05:26.576Z,32.55
2023-03-18T12:08:00.745Z,32.66
2023-03-18T12:10:29.822Z,32.55
2023-03-18T12:13:05.154Z,32.61
2023-03-18T12:15:34.686Z,32.79
2023-03-18T12:18:36.625Z,32.72
2023-03-18T12:21:20.616Z,32.75
2023-03-18T12:23:51.145Z,32.85
2023-03-18T12:26:30.368Z,32.76
2023-03-18T12:29:09.549Z,32.71
2023-03-18T12:31:39.923Z,32.58
2023-03-18T12:34:10.962Z,32.49
2023-03-18T12:36:37.768Z,32.38
2023-03-18T12:39:06.814Z,32.62
2023-03-18T12:41:37.307Z,32.33
2023-03-18T12:44:07.793Z,32.40
2023-03-18T12:46:36.027Z,32.30
2023-03-18T12:49:22.291Z,32.22
2023-03-18T12:51:57.765Z,32.22
2023-03-18T12:54:25.951Z,32.26
2023-03-18T12:56:55.455Z,32.01
2023-03-18T12:59:27.591Z,32.06
2023-03-18T13:02:05.144Z,32.13
2023-03-18T13:04:31.921Z,32.20
2023-03-18T13:07:15.940Z,32.24
2023-03-18T13:09:43.682Z,32.20
2023-03-18T13:12:20.497Z,32.09
2023-03-18T13:15:08.200Z,32.12
2023-03-18T13:17:38.928Z,32.10
2023-03-18T13:20:16.344Z,32.05
2023-03-18T13:22:42.621Z,32.09
2023-03-18T13:25:28.967Z,32.04
2023-03-18T13:28:14.021Z,32.00
2023-03-18T13:30:48.627Z,31.92
2023-03-18T13:33:38.441Z,32.13
2023-03-18T13:36:23.474Z,32.08
2023-03-18T13:38:55.280Z,31.97
2023-03-18T13:41:51.214Z,32.04
2023-03-18T13:44:25.378Z,31.78
2023-03-18T13:46:57.179Z,32.03
2023-03-18T13:49:24.246Z,31.78
2023-03-18T13:51:51.921Z,31.95
2023-03-18T13:54:18.824Z,31.94
2023-03-18T13:56:50.662Z,31.94
2023-03-18T13:59:35.317Z,31.95
2023-03-18T14:02:21.028Z,31.79
2023-03-18T14:04:50.798Z,32.02
2023-03-18T14:07:23.533Z,31.93
2023-03-18T14:09:52.955Z,31.88
2023-03-18T14:12:20.562Z,31.84
2023-03-18T14:14:56.724Z,31.94
2023-03-18T14:17:25.765Z,32.17
2023-03-18T14:19:55.410Z,31.92
2023-03-18T14:22:25.434Z,32.06
2023-03-18T14:25:10.928Z,31.84
2023-03-18T14:27:47.377Z,31.91
2023-03-18T14:30:32.046Z,32.24
2023-03-18T14:32:58.361Z,32.03
2023-03-18T14:35:28.467Z,31.98
2023-03-18T14:37:57.674Z,31.95
2023-03-18T14:40:24.005Z,32.16
2023-03-18T14:42:56.651Z,32.26
2023-03-18T14:45:27.591Z,32.20
2023-03-18T14:47:54.514Z,32.18
2023-03-18T14:50:27.591Z,32.15
2023-03-18T14:52:55.672Z,32.09
2023-03-18T14:55:23.698Z,32.00
2023-03-18T14:57:50.878Z,32.16
2023-03-18T15:00:17.410Z,32.11
2023-03-18T15:02:44.080Z,32.20
2023-03-18T15:05:12.278Z,32.17
2023-03-18T15:07:39.452Z,32.31
2023-03-18T15:10:10.825Z,31.95
2023-03-18T15:12:37.392Z,32.12
2023-03-18T15:15:05.048Z,32.29
2023-03-18T15:17:31.377Z,32.15
2023-03-18T15:19:59.908Z,32.05
2023-03-18T15:22:28.345Z,32.18
2023-03-18T15:25:04.625Z,32.27
2023-03-18T15:27:31.802Z,32.31
2023-03-18T15:29:58.544Z,32.18
2023-03-18T15:32:26.384Z,32.18
2023-03-18T15:34:53.718Z,32.00
2023-03-18T15:37:26.149Z,32.17
2023-03-18T15:39:56.087Z,32.00
2023-03-18T15:42:22.404Z,32.10
2023-03-18T15:44:54.500Z,32.19
2023-03-18T15:47:23.373Z,32.26
2023-03-18T15:49:53.449Z,32.30
2023-03-18T15:52:20.970Z,32.29
2023-03-18T15:54:47.762Z,32.31
2023-03-18T15:57:28.311Z,32.23
2023-03-18T15:59:54.673Z,32.38
2023-03-18T16:02:22.501Z,32.52
2023-03-18T16:04:48.844Z,32.12
2023-03-18T16:07:18.951Z,32.05
2023-03-18T16:09:45.687Z,31.93
2023-03-18T16:12:19.238Z,31.83
2023-03-18T16:14:46.197Z,32.79
2023-03-18T16:17:12.681Z,32.69
2023-03-18T16:19:39.004Z,32.74
2023-03-18T16:22:05.889Z,32.64
2023-03-18T16:24:32.207Z,32.69
2023-03-18T16:26:58.665Z,32.27
2023-03-18T16:29:29.858Z,32.46
2023-03-18T16:31:56.204Z,32.70
2023-03-18T16:34:22.525Z,32.76
2023-03-18T16:36:50.566Z,32.45
2023-03-18T16:39:17.660Z,32.49
2023-03-18T16:41:44.450Z,32.63
2023-03-18T16:44:12.000Z,32.51
2023-03-18T16:46:45.345Z,32.48
2023-03-18T16:49:16.224Z,32.42
2023-03-18T16:51:42.588Z,32.32
2023-03-18T16:54:29.403Z,32.37
2023-03-18T16:56:57.369Z,32.45
2023-03-18T17:02:13.039Z,32.55
2023-03-18T17:04:40.613Z,32.46
2023-03-18T17:07:06.917Z,32.63
2023-03-18T17:09:33.205Z,32.36
2023-03-18T17:12:03.801Z,32.58
2023-03-18T17:14:37.718Z,32.83
2023-03-18T17:17:08.179Z,32.62
2023-03-18T17:19:35.410Z,32.63
2023-03-18T17:22:01.982Z,32.49
2023-03-18T17:24:28.263Z,32.62
2023-03-18T17:26:54.998Z,32.97
2023-03-18T17:29:25.121Z,32.93
2023-03-18T17:31:54.391Z,33.08
2023-03-18T17:34:20.673Z,33.19
2023-03-18T17:36:47.034Z,33.71
2023-03-18T17:39:13.552Z,34.15
2023-03-18T17:41:39.908Z,34.72
2023-03-18T17:44:24.903Z,34.92
2023-03-18T17:46:52.131Z,34.95
2023-03-18T17:49:20.684Z,35.05
2023-03-18T17:51:48.775Z,35.31
2023-03-18T17:54:21.918Z,35.04
2023-03-18T17:56:48.244Z,35.24
2023-03-18T17:59:15.375Z,34.72
2023-03-18T18:01:42.368Z,34.98
2023-03-18T18:04:09.334Z,34.70
2023-03-18T18:06:36.087Z,34.85
2023-03-18T18:09:02.579Z,34.97
2023-03-18T18:11:29.330Z,34.81
2023-03-18T18:13:59.265Z,34.50
2023-03-18T18:16:26.302Z,34.80
2023-03-18T18:18:52.639Z,34.71
2023-03-18T18:21:19.881Z,34.79
2023-03-18T18:23:46.464Z,34.45
2023-03-18T18:26:13.652Z,34.66
2023-03-18T18:28:40.989Z,34.48
2023-03-18T18:31:09.194Z,34.41
2023-03-18T18:33:35.730Z,34.62
2023-03-18T18:36:02.066Z,34.37
2023-03-18T18:38:28.550Z,34.75
2023-03-18T18:40:55.755Z,34.69
2023-03-18T18:43:22.389Z,34.55
2023-03-18T18:45:48.900Z,34.52
2023-03-18T18:48:16.116Z,34.48
2023-03-18T18:50:43.609Z,34.42
2023-03-18T18:53:17.462Z,34.44
2023-03-18T18:55:43.968Z,34.47
2023-03-18T18:58:16.057Z,34.46
2023-03-18T19:00:42.397Z,34.33
2023-03-18T19:03:10.896Z,34.17
2023-03-18T19:05:37.917Z,34.25
2023-03-18T19:08:04.699Z,34.42
2023-03-18T19:10:31.150Z,34.06
2023-03-18T19:12:57.464Z,34.00
2023-03-18T19:15:24.174Z,33.74
2023-03-18T19:17:50.506Z,33.84
2023-03-18T19:20:27.143Z,33.81
2023-03-18T19:22:53.656Z,33.98
2023-03-18T19:25:19.980Z,33.80
2023-03-18T19:27:46.583Z,33.98
2023-03-18T19:30:19.496Z,34.07
2023-03-18T19:32:46.032Z,33.80
2023-03-18T19:35:12.885Z,34.02
2023-03-18T19:37:39.596Z,33.99
2023-03-18T19:40:14.524Z,33.79
2023-03-18T19:42:41.035Z,33.58
2023-03-18T19:45:08.740Z,33.86
2023-03-18T19:47:35.072Z,33.79
2023-03-18T19:50:01.411Z,33.80
2023-03-18T19:52:27.935Z,33.74
2023-03-18T19:54:54.599Z,33.62
2023-03-18T19:57:29.786Z,33.78
2023-03-18T19:59:57.195Z,33.68
2023-03-18T20:02:27.364Z,33.47
2023-03-18T20:04:54.593Z,33.85
2023-03-18T20:07:21.673Z,33.62
2023-03-18T20:09:48.051Z,34.10
2023-03-18T20:12:26.553Z,33.88
2023-03-18T20:14:53.097Z,33.66
2023-03-18T20:17:33.507Z,33.59
2023-03-18T20:19:59.842Z,34.01
2023-03-18T20:22:28.092Z,34.03
2023-03-18T20:24:54.482Z,34.01
2023-03-18T20:27:21.032Z,34.27
2023-03-18T20:29:47.364Z,34.08
2023-03-18T20:32:13.764Z,33.83
2023-03-18T20:34:41.510Z,34.01
2023-03-18T20:37:13.010Z,33.95
2023-03-18T20:39:39.328Z,34.20
2023-03-18T20:42:06.026Z,33.88
2023-03-18T20:44:32.377Z,33.99
2023-03-18T20:46:58.742Z,34.04
2023-03-18T20:49:25.305Z,34.14
2023-03-18T20:51:51.659Z,34.21
2023-03-18T20:54:19.007Z,34.29
2023-03-18T20:56:45.889Z,34.15
2023-03-18T20:59:12.321Z,34.07
2023-03-18T21:01:38.714Z,34.15
2023-03-18T21:04:05.635Z,34.26
2023-03-18T21:06:32.064Z,34.31
2023-03-18T21:08:58.384Z,34.18
2023-03-18T21:11:29.669Z,34.30
2023-03-18T21:13:56.280Z,34.33
2023-03-18T21:16:23.425Z,34.29
2023-03-18T21:18:49.954Z,34.30
2023-03-18T21:21:20.754Z,34.53
2023-03-18T21:23:47.113Z,34.53
2023-03-18T21:26:13.435Z,34.39
2023-03-18T21:28:39.799Z,35.01
2023-03-18T21:31:06.226Z,35.23
2023-03-18T21:33:33.145Z,35.40
2023-03-18T21:35:59.535Z,35.68
2023-03-18T21:38:27.021Z,35.16
2023-03-18T21:40:53.526Z,35.29
2023-03-18T21:43:32.529Z,35.61
2023-03-18T21:45:59.177Z,35.37
2023-03-18T21:48:25.745Z,36.05
2023-03-18T21:50:52.131Z,36.08
2023-03-18T21:53:19.478Z,35.76
2023-03-18T21:55:46.005Z,36.02
2023-03-18T21:58:16.657Z,35.85
2023-03-18T22:00:43.317Z,36.03
2023-03-18T22:03:13.558Z,36.64
2023-03-18T22:05:39.868Z,35.72
2023-03-18T22:08:06.209Z,36.44
2023-03-18T22:10:32.602Z,36.72
2023-03-18T22:12:58.898Z,37.30
2023-03-18T22:15:25.093Z,36.73
2023-03-18T22:17:51.668Z,36.96
2023-03-18T22:20:17.942Z,36.76
2023-03-18T22:22:44.248Z,36.65
2023-03-18T22:25:16.384Z,36.87
2023-03-18T22:27:42.680Z,36.91
2023-03-18T22:30:09.245Z,36.80
2023-03-18T22:32:45.247Z,36.79
2023-03-18T22:35:13.849Z,36.81
2023-03-18T22:37:40.328Z,36.72
2023-03-18T22:40:06.905Z,36.71
2023-03-18T22:42:33.184Z,36.67
2023-03-18T22:44:59.471Z,36.27
2023-03-18T22:47:25.956Z,36.19
2023-03-18T22:49:52.357Z,36.33
2023-03-18T22:52:22.658Z,36.20
2023-03-18T22:54:49.472Z,36.21
2023-03-18T22:57:17.175Z,36.35
2023-03-18T22:59:43.491Z,36.32
2023-03-18T23:02:13.541Z,36.21
2023-03-18T23:04:39.888Z,36.13
2023-03-18T23:07:06.319Z,36.47
2023-03-18T23:09:34.719Z,36.03
2023-03-18T23:12:03.703Z,36.26
2023-03-18T23:14:30.063Z,36.11
2023-03-18T23:16:56.549Z,36.19
2023-03-18T23:19:22.877Z,36.02
2023-03-18T23:21:49.229Z,36.15
2023-03-18T23:24:15.668Z,35.97
2023-03-18T23:26:41.973Z,36.04
2023-03-18T23:29:08.949Z,36.27
2023-03-18T23:31:35.528Z,35.96
2023-03-18T23:34:01.867Z,35.93
2023-03-18T23:36:28.621Z,36.18
2023-03-18T23:38:54.938Z,35.92
2023-03-18T23:41:21.252Z,35.98
2023-03-18T23:43:47.731Z,35.85
2023-03-18T23:46:14.073Z,35.85
2023-03-18T23:48:40.552Z,35.77
2023-03-18T23:51:06.860Z,35.93
2023-03-18T23:53:33.189Z,35.87
2023-03-18T23:55:59.505Z,36.06
2023-03-18T23:58:25.958Z,36.07
